Time;durP1;ratioP1;P1;durP2;ratioP2;P2;SDS_P1;SDS_P2;PMS_P1;PMS_P2;Temp;Humidity;BMP_temperature;BMP_pressure;BME280_temperature;BME280_humidity;BME280_pressure;Samples;Min_cycle;Max_cycle;Signal;HPM_P1;HPM_P2
2022/05/09 00:00:18;;;;;;;14.35;4.72;;;;;;;;;;5089872;28;20036;-67
2022/05/09 00:02:44;;;;;;;11.80;5.03;;;;;;;;;;5086611;28;20056;-66
2022/05/09 00:05:13;;;;;;;18.25;4.85;;;;;;;;;;5088974;28;20075;-67
2022/05/09 00:07:39;;;;;;;19.60;5.70;;;;;;;;;;5089094;28;20051;-67
2022/05/09 00:10:05;;;;;;;16.45;4.90;;;;;;;;;;5091687;28;20123;-67
2022/05/09 00:12:32;;;;;;;15.65;5.05;;;;;;;;;;5086004;28;20040;-66
2022/05/09 00:14:58;;;;;;;15.63;4.72;;;;;;;;;;5087842;28;20047;-66
2022/05/09 00:17:24;;;;;;;14.23;5.13;;;;;;;;;;5086693;28;20036;-67
2022/05/09 00:19:50;;;;;;;19.33;4.93;;;;;;;;;;5076954;28;20049;-67
2022/05/09 00:22:16;;;;;;;16.95;5.10;;;;;;;;;;5079850;28;20055;-66
2022/05/09 00:24:42;;;;;;;17.30;5.60;;;;;;;;;;5105247;28;20050;-67
2022/05/09 00:27:08;;;;;;;15.05;4.57;;;;;;;;;;5093090;28;20122;-66
2022/05/09 00:29:34;;;;;;;15.77;5.30;;;;;;;;;;5085571;28;20093;-66
2022/05/09 00:32:00;;;;;;;20.02;5.80;;;;;;;;;;5087480;28;20139;-66
2022/05/09 00:34:26;;;;;;;14.32;4.75;;;;;;;;;;5084637;28;20119;-66
2022/05/09 00:36:55;;;;;;;22.55;5.70;;;;;;;;;;5084181;28;20047;-67
2022/05/09 00:39:21;;;;;;;17.48;5.82;;;;;;;;;;5082581;28;20041;-67
2022/05/09 00:41:47;;;;;;;19.15;5.97;;;;;;;;;;5085871;28;20049;-67
2022/05/09 00:44:22;;;;;;;15.68;4.80;;;;;;;;;;5084136;28;20044;-67
2022/05/09 00:46:49;;;;;;;17.90;5.43;;;;;;;;;;5089193;28;20128;-67
2022/05/09 00:49:18;;;;;;;18.98;5.45;;;;;;;;;;5084330;28;20532;-67
2022/05/09 00:51:45;;;;;;;;;;;;;;;;;;5087828;28;20044;-67
2022/05/09 00:54:11;;;;;;;16.27;5.05;;;;;;;;;;5088232;28;19920;-66
2022/05/09 00:56:41;;;;;;;15.50;6.20;;;;;;;;;;5088189;28;20062;-67
2022/05/09 00:59:09;;;;;;;17.98;6.18;;;;;;;;;;5091967;28;20052;-67
2022/05/09 01:01:36;;;;;;;19.30;6.18;;;;;;;;;;5090383;28;20415;-67
2022/05/09 01:04:09;;;;;;;16.67;5.63;;;;;;;;;;5086098;28;20055;-66
2022/05/09 01:06:36;;;;;;;19.25;5.75;;;;;;;;;;5089939;28;20097;-66
2022/05/09 01:09:02;;;;;;;16.65;6.55;;;;;;;;;;5080896;28;20081;-67
2022/05/09 01:11:29;;;;;;;15.93;6.30;;;;;;;;;;5084074;28;20037;-66
2022/05/09 01:14:00;;;;;;;19.67;6.03;;;;;;;;;;5072860;28;20114;-67
2022/05/09 01:16:26;;;;;;;19.65;6.10;;;;;;;;;;5091112;28;20059;-66
2022/05/09 01:18:52;;;;;;;16.05;6.20;;;;;;;;;;5088044;28;20076;-66
2022/05/09 01:21:34;;;;;;;17.52;5.30;;;;;;;;;;5096975;28;20387;-66
2022/05/09 01:24:01;;;;;;;19.38;5.65;;;;;;;;;;5086501;28;20132;-66
2022/05/09 01:26:27;;;;;;;20.35;6.03;;;;;;;;;;5093336;28;20433;-66
2022/05/09 01:28:54;;;;;;;18.48;5.28;;;;;;;;;;5093243;28;20059;-66
2022/05/09 01:31:21;;;;;;;17.05;5.80;;;;;;;;;;5076478;28;20049;-66
2022/05/09 01:33:51;;;;;;;20.05;6.13;;;;;;;;;;5076225;28;20045;-66
2022/05/09 01:36:19;;;;;;;19.80;5.95;;;;;;;;;;5084625;28;20091;-66
2022/05/09 01:39:11;;;;;;;16.85;5.95;;;;;;;;;;5087815;28;20506;-66
2022/05/09 01:41:39;;;;;;;12.07;5.20;;;;;;;;;;5082953;28;20059;-67
2022/05/09 01:44:05;;;;;;;23.63;5.90;;;;;;;;;;5096218;28;20130;-65
2022/05/09 01:46:31;;;;;;;16.77;6.00;;;;;;;;;;5086358;28;20045;-66
2022/05/09 01:51:44;;;;;;;15.82;5.22;;;;;;;;;;5088135;28;20089;-66
2022/05/09 01:54:10;;;;;;;24.90;6.97;;;;;;;;;;5094591;28;20486;-66
2022/05/09 01:56:37;;;;;;;18.00;6.10;;;;;;;;;;5088761;28;20040;-66
2022/05/09 01:59:03;;;;;;;20.92;6.60;;;;;;;;;;5092951;28;20047;-66
2022/05/09 02:01:31;;;;;;;21.60;7.45;;;;;;;;;;5086186;28;20430;-66
2022/05/09 02:03:57;;;;;;;21.25;6.15;;;;;;;;;;5089775;28;20044;-67
2022/05/09 02:06:23;;;;;;;16.30;6.22;;;;;;;;;;5085278;28;20040;-66
2022/05/09 02:08:49;;;;;;;18.58;6.07;;;;;;;;;;5085169;28;20071;-66
2022/05/09 02:11:15;;;;;;;24.10;6.88;;;;;;;;;;5090449;28;20390;-66
2022/05/09 02:13:41;;;;;;;23.33;6.38;;;;;;;;;;5089721;28;20040;-66
2022/05/09 02:16:07;;;;;;;20.05;6.57;;;;;;;;;;5086582;28;20459;-67
2022/05/09 02:18:34;;;;;;;17.92;6.43;;;;;;;;;;5089312;28;20072;-66
2022/05/09 02:21:00;;;;;;;17.08;6.80;;;;;;;;;;5092600;28;20044;-66
2022/05/09 02:23:26;;;;;;;17.90;5.95;;;;;;;;;;5086522;28;20094;-66
2022/05/09 02:25:53;;;;;;;23.48;7.47;;;;;;;;;;5084102;28;20463;-66
2022/05/09 02:28:21;;;;;;;18.02;6.30;;;;;;;;;;5081359;28;20474;-66
2022/05/09 02:30:47;;;;;;;25.88;7.32;;;;;;;;;;5084104;28;20129;-66
2022/05/09 02:33:14;;;;;;;20.23;6.75;;;;;;;;;;5095418;28;20040;-66
2022/05/09 02:35:41;;;;;;;20.30;7.03;;;;;;;;;;5093751;28;20481;-66
2022/05/09 02:38:07;;;;;;;17.02;5.93;;;;;;;;;;5080344;28;20052;-66
2022/05/09 02:40:33;;;;;;;15.90;6.40;;;;;;;;;;5081580;28;20041;-66
2022/05/09 02:43:00;;;;;;;24.65;8.93;;;;;;;;;;5090136;28;20055;-67
2022/05/09 02:45:26;;;;;;;21.35;7.53;;;;;;;;;;5090921;28;20475;-66
2022/05/09 02:47:53;;;;;;;29.85;8.50;;;;;;;;;;5075826;28;20056;-67
2022/05/09 02:50:21;;;;;;;15.57;6.15;;;;;;;;;;5086047;28;20048;-66
2022/05/09 02:52:47;;;;;;;20.45;6.82;;;;;;;;;;5089079;28;20427;-66
2022/05/09 02:55:13;;;;;;;24.80;7.82;;;;;;;;;;5089053;28;20040;-66
2022/05/09 02:57:39;;;;;;;22.40;7.05;;;;;;;;;;5085714;28;20370;-66
2022/05/09 03:00:08;;;;;;;21.50;6.93;;;;;;;;;;5087525;28;20481;-66
2022/05/09 03:02:34;;;;;;;;;;;;;;;;;;5082303;28;20044;-66
2022/05/09 03:05:00;;;;;;;24.25;7.22;;;;;;;;;;5091052;28;19927;-67
2022/05/09 03:07:26;;;;;;;20.08;7.28;;;;;;;;;;5091666;28;20490;-66
2022/05/09 03:09:52;;;;;;;23.63;6.93;;;;;;;;;;5079993;28;20048;-66
2022/05/09 03:12:19;;;;;;;26.13;9.18;;;;;;;;;;5087660;28;20044;-66
2022/05/09 03:14:46;;;;;;;16.20;6.78;;;;;;;;;;5082658;28;20128;-66
2022/05/09 03:17:12;;;;;;;22.70;7.75;;;;;;;;;;5084145;28;20048;-67
2022/05/09 03:19:38;;;;;;;20.63;7.47;;;;;;;;;;5092749;28;20036;-67
2022/05/09 03:22:04;;;;;;;28.88;9.48;;;;;;;;;;5082766;28;20053;-67
2022/05/09 03:24:30;;;;;;;31.17;9.52;;;;;;;;;;5076713;28;20448;-67
2022/05/09 03:26:59;;;;;;;48.80;11.77;;;;;;;;;;5089722;28;20044;-67
2022/05/09 03:29:25;;;;;;;43.50;13.18;;;;;;;;;;5088162;28;20064;-67
2022/05/09 03:31:52;;;;;;;58.03;13.60;;;;;;;;;;5085127;28;20056;-67
2022/05/09 03:34:18;;;;;;;120.35;20.70;;;;;;;;;;5093576;28;20048;-66
2022/05/09 03:36:44;;;;;;;58.42;13.15;;;;;;;;;;5088017;28;20045;-66
2022/05/09 03:39:10;;;;;;;51.75;12.52;;;;;;;;;;5087018;28;20449;-65
2022/05/09 03:41:36;;;;;;;62.08;12.65;;;;;;;;;;5100393;28;20066;-66
2022/05/09 03:44:03;;;;;;;38.28;8.77;;;;;;;;;;5093361;28;20044;-65
2022/05/09 03:46:29;;;;;;;79.18;16.30;;;;;;;;;;5084050;28;20044;-65
2022/05/09 03:48:55;;;;;;;57.38;14.23;;;;;;;;;;5088007;28;20051;-66
2022/05/09 03:51:21;;;;;;;64.97;15.82;;;;;;;;;;5091799;28;20123;-66
2022/05/09 03:53:47;;;;;;;54.55;12.90;;;;;;;;;;5093932;28;20383;-65
2022/05/09 03:56:13;;;;;;;42.10;11.45;;;;;;;;;;5092612;28;20050;-66
2022/05/09 03:58:39;;;;;;;52.45;15.23;;;;;;;;;;5090613;28;20450;-66
2022/05/09 04:01:07;;;;;;;98.32;22.35;;;;;;;;;;5087301;28;20150;-65
2022/05/09 04:03:33;;;;;;;100.97;19.90;;;;;;;;;;5084741;28;20113;-65
2022/05/09 04:05:59;;;;;;;77.55;18.95;;;;;;;;;;5084500;28;20773;-65
2022/05/09 04:08:25;;;;;;;84.63;21.67;;;;;;;;;;5088446;28;20387;-66
2022/05/09 04:10:53;;;;;;;35.28;10.38;;;;;;;;;;5084673;28;20086;-66
2022/05/09 04:13:19;;;;;;;74.97;19.85;;;;;;;;;;5090851;28;20055;-65
2022/05/09 04:18:34;;;;;;;52.60;13.90;;;;;;;;;;5090851;28;20044;-66
2022/05/09 04:21:01;;;;;;;63.35;18.55;;;;;;;;;;5081984;28;20418;-66
2022/05/09 04:23:26;;;;;;;108.07;24.73;;;;;;;;;;5078737;28;20036;-66
2022/05/09 04:25:52;;;;;;;113.15;27.38;;;;;;;;;;5093047;28;20054;-66
2022/05/09 04:28:19;;;;;;;66.82;17.05;;;;;;;;;;5092460;28;20051;-66
2022/05/09 04:30:45;;;;;;;91.82;18.63;;;;;;;;;;5090924;28;20103;-67
2022/05/09 04:33:12;;;;;;;159.27;32.15;;;;;;;;;;5083832;28;20048;-67
2022/05/09 04:35:39;;;;;;;55.22;13.95;;;;;;;;;;5095206;28;20066;-66
2022/05/09 04:38:06;;;;;;;140.10;27.42;;;;;;;;;;5082503;28;20043;-66
2022/05/09 04:40:35;;;;;;;97.15;22.95;;;;;;;;;;5076335;28;20049;-67
2022/05/09 04:43:01;;;;;;;68.63;16.45;;;;;;;;;;5083530;28;20056;-67
2022/05/09 04:45:30;;;;;;;84.82;20.80;;;;;;;;;;5084363;28;20049;-66
2022/05/09 04:47:57;;;;;;;42.75;12.10;;;;;;;;;;5087586;28;20048;-66
2022/05/09 04:50:24;;;;;;;112.32;22.98;;;;;;;;;;5089492;28;20479;-66
2022/05/09 04:52:50;;;;;;;29.45;11.20;;;;;;;;;;5093255;28;20047;-67
2022/05/09 04:55:16;;;;;;;74.40;19.10;;;;;;;;;;5090534;28;20044;-67
2022/05/09 04:57:42;;;;;;;77.07;19.10;;;;;;;;;;5093553;28;20044;-66
2022/05/09 05:00:10;;;;;;;40.42;13.18;;;;;;;;;;5096376;28;20482;-66
2022/05/09 05:02:36;;;;;;;55.00;15.77;;;;;;;;;;5093464;28;20097;-67
2022/05/09 05:05:03;;;;;;;73.18;17.30;;;;;;;;;;5082618;28;20048;-66
2022/05/09 05:07:29;;;;;;;72.30;17.13;;;;;;;;;;5092217;28;20040;-67
2022/05/09 05:09:55;;;;;;;36.75;12.80;;;;;;;;;;5093600;28;20455;-67
2022/05/09 05:12:21;;;;;;;24.90;10.13;;;;;;;;;;5093730;28;20070;-66
2022/05/09 05:14:47;;;;;;;44.28;12.55;;;;;;;;;;5091510;28;20483;-66
2022/05/09 05:17:13;;;;;;;44.42;13.57;;;;;;;;;;5080587;28;20098;-67
2022/05/09 05:19:44;;;;;;;26.45;9.82;;;;;;;;;;5086687;28;20059;-66
2022/05/09 05:22:12;;;;;;;44.45;13.85;;;;;;;;;;5093908;28;20123;-66
2022/05/09 05:24:39;;;;;;;56.47;15.03;;;;;;;;;;5095264;28;20044;-67
2022/05/09 05:27:05;;;;;;;95.57;21.83;;;;;;;;;;5085921;28;20047;-65
2022/05/09 05:29:31;;;;;;;50.92;13.00;;;;;;;;;;5092996;28;20044;-66
2022/05/09 05:31:58;;;;;;;40.40;12.13;;;;;;;;;;5092027;28;20146;-66
2022/05/09 05:34:24;;;;;;;60.80;16.25;;;;;;;;;;5088780;28;20048;-68
2022/05/09 05:36:51;;;;;;;43.35;13.48;;;;;;;;;;5093745;28;20054;-67
2022/05/09 05:39:17;;;;;;;65.00;15.70;;;;;;;;;;5086577;28;20047;-67
2022/05/09 05:41:44;;;;;;;25.73;9.60;;;;;;;;;;5092253;28;20044;-67
2022/05/09 05:44:11;;;;;;;56.15;13.48;;;;;;;;;;5090143;28;20047;-67
2022/05/09 05:46:39;;;;;;;35.35;11.30;;;;;;;;;;5092482;28;20408;-67
2022/05/09 05:49:05;;;;;;;58.58;15.85;;;;;;;;;;5091781;28;20051;-66
2022/05/09 05:51:31;;;;;;;50.90;12.68;;;;;;;;;;5090152;28;20127;-67
2022/05/09 05:53:58;;;;;;;50.33;14.18;;;;;;;;;;5094803;28;20101;-66
2022/05/09 05:56:24;;;;;;;50.55;14.02;;;;;;;;;;5095158;28;20052;-66
2022/05/09 05:58:50;;;;;;;60.38;15.25;;;;;;;;;;5085189;28;20088;-67
2022/05/09 06:01:18;;;;;;;40.10;12.85;;;;;;;;;;5094995;28;20044;-68
2022/05/09 06:03:44;;;;;;;29.55;9.27;;;;;;;;;;5091056;28;20086;-67
2022/05/09 06:06:13;;;;;;;19.90;7.75;;;;;;;;;;5106257;28;20050;-67
2022/05/09 06:08:40;;;;;;;41.65;11.57;;;;;;;;;;5091204;28;20421;-68
2022/05/09 06:11:06;;;;;;;20.63;8.45;;;;;;;;;;5076289;28;20510;-67
2022/05/09 06:13:32;;;;;;;28.10;9.45;;;;;;;;;;5093181;28;20119;-67
2022/05/09 06:15:58;;;;;;;51.42;14.45;;;;;;;;;;5092882;28;20966;-67
2022/05/09 06:18:24;;;;;;;30.75;9.35;;;;;;;;;;5092153;28;20040;-66
2022/05/09 06:20:51;;;;;;;45.13;10.75;;;;;;;;;;5082817;28;20052;-66
2022/05/09 06:23:17;;;;;;;21.02;7.60;;;;;;;;;;5088115;28;20036;-65
2022/05/09 06:25:46;;;;;;;28.77;8.88;;;;;;;;;;5093897;28;20044;-66
2022/05/09 06:28:12;;;;;;;27.75;9.60;;;;;;;;;;5089846;28;20494;-66
2022/05/09 06:30:39;;;;;;;30.48;9.15;;;;;;;;;;5094111;28;20040;-66
2022/05/09 06:33:05;;;;;;;21.45;8.00;;;;;;;;;;5087883;28;20097;-66
2022/05/09 06:35:31;;;;;;;23.65;7.57;;;;;;;;;;5091621;28;20044;-66
2022/05/09 06:37:59;;;;;;;47.95;12.43;;;;;;;;;;5092718;28;20070;-67
2022/05/09 06:40:25;;;;;;;35.53;10.40;;;;;;;;;;5094983;28;20441;-67
2022/05/09 06:42:54;;;;;;;34.30;11.02;;;;;;;;;;5085466;28;20045;-67
2022/05/09 06:45:20;;;;;;;50.60;12.10;;;;;;;;;;5084388;28;20094;-67
2022/05/09 06:47:50;;;;;;;30.33;8.95;;;;;;;;;;5073839;28;20495;-67
2022/05/09 06:50:17;;;;;;;26.23;8.80;;;;;;;;;;5107846;28;20040;-67
2022/05/09 06:52:43;;;;;;;32.85;10.38;;;;;;;;;;5086424;28;20059;-67
2022/05/09 06:55:10;;;;;;;47.05;11.70;;;;;;;;;;5092081;28;20044;-67
2022/05/09 06:57:40;;;;;;;31.95;9.40;;;;;;;;;;5092799;28;20491;-67
2022/05/09 07:00:10;;;;;;;24.05;7.68;;;;;;;;;;5090003;28;20036;-67
2022/05/09 07:02:36;;;;;;;21.88;7.80;;;;;;;;;;5092956;28;20063;-67
2022/05/09 07:05:04;;;;;;;44.65;13.05;;;;;;;;;;5091191;28;20039;-67
2022/05/09 07:07:30;;;;;;;35.00;9.52;;;;;;;;;;5088490;28;20131;-67
2022/05/09 07:09:56;;;;;;;46.90;12.27;;;;;;;;;;5091156;28;20107;-67
2022/05/09 07:12:22;;;;;;;45.33;12.10;;;;;;;;;;5087307;28;20486;-67
2022/05/09 07:14:48;;;;;;;44.58;12.30;;;;;;;;;;5089118;28;20403;-66
2022/05/09 07:17:14;;;;;;;23.95;7.43;;;;;;;;;;5085927;28;20109;-67
2022/05/09 07:19:40;;;;;;;19.20;7.10;;;;;;;;;;5091491;28;20048;-66
2022/05/09 07:22:06;;;;;;;21.63;6.68;;;;;;;;;;5090136;28;20055;-67
2022/05/09 07:24:31;;;;;;;34.53;9.68;;;;;;;;;;5083754;28;20040;-67
2022/05/09 07:26:57;;;;;;;24.50;7.75;;;;;;;;;;5078255;28;20076;-67
2022/05/09 07:29:23;;;;;;;25.70;8.18;;;;;;;;;;5077126;28;20396;-67
2022/05/09 07:31:49;;;;;;;17.23;6.57;;;;;;;;;;5090764;28;20059;-67
2022/05/09 07:34:15;;;;;;;39.30;11.43;;;;;;;;;;5090398;28;20395;-67
2022/05/09 07:36:42;;;;;;;30.13;10.40;;;;;;;;;;5088395;28;20066;-67
2022/05/09 07:39:08;;;;;;;20.20;6.65;;;;;;;;;;5088851;28;20048;-67
2022/05/09 07:41:34;;;;;;;18.13;6.00;;;;;;;;;;5090500;28;20044;-66
2022/05/09 07:44:00;;;;;;;32.13;9.40;;;;;;;;;;5087016;28;20434;-66
2022/05/09 07:46:26;;;;;;;36.42;9.65;;;;;;;;;;5083807;28;20094;-66
2022/05/09 07:48:52;;;;;;;44.05;11.07;;;;;;;;;;5082747;28;20139;-66
2022/05/09 07:51:19;;;;;;;34.33;10.70;;;;;;;;;;5081142;28;20048;-66
2022/05/09 07:53:45;;;;;;;20.42;6.93;;;;;;;;;;5088749;28;20050;-66
2022/05/09 07:56:11;;;;;;;33.97;8.75;;;;;;;;;;5088975;28;20493;-68
2022/05/09 07:58:37;;;;;;;27.13;7.80;;;;;;;;;;5090099;28;20048;-68
2022/05/09 08:01:04;;;;;;;16.52;6.40;;;;;;;;;;5087675;28;20075;-65
2022/05/09 08:03:31;;;;;;;25.83;8.80;;;;;;;;;;5092125;28;20040;-68
2022/05/09 08:06:02;;;;;;;11.52;5.50;;;;;;;;;;5089855;28;20052;-66
2022/05/09 08:08:31;;;;;;;35.08;7.63;;;;;;;;;;5091581;28;20052;-66
2022/05/09 08:10:58;;;;;;;24.70;6.65;;;;;;;;;;5087988;28;20044;-66
2022/05/09 08:13:25;;;;;;;11.88;5.50;;;;;;;;;;5088651;28;20067;-65
2022/05/09 08:15:51;;;;;;;20.83;6.07;;;;;;;;;;5073343;28;20043;-66
2022/05/09 08:18:19;;;;;;;22.73;6.85;;;;;;;;;;5081571;28;20090;-66
2022/05/09 08:20:45;;;;;;;25.17;8.23;;;;;;;;;;5088993;28;20584;-67
2022/05/09 08:23:12;;;;;;;26.90;8.43;;;;;;;;;;5088845;28;20071;-67
2022/05/09 08:25:39;;;;;;;31.58;9.00;;;;;;;;;;5087489;28;20467;-66
2022/05/09 08:28:07;;;;;;;38.05;9.20;;;;;;;;;;5086779;28;20076;-67
2022/05/09 08:30:34;;;;;;;24.20;8.32;;;;;;;;;;5095148;28;20056;-67
2022/05/09 08:33:05;;;;;;;16.33;4.45;;;;;;;;;;5091836;28;20070;-67
2022/05/09 08:35:31;;;;;;;13.48;4.85;;;;;;;;;;5092538;28;20040;-67
2022/05/09 08:37:57;;;;;;;21.05;5.47;;;;;;;;;;5089481;28;20475;-67
2022/05/09 08:40:37;;;;;;;19.73;5.32;;;;;;;;;;5081763;28;20090;-66
2022/05/09 08:43:24;;;;;;;15.40;4.88;;;;;;;;;;5073400;28;20044;-65
2022/05/09 08:45:55;;;;;;;17.73;5.05;;;;;;;;;;5064392;28;20101;-65
2022/05/09 08:48:38;;;;;;;24.25;6.80;;;;;;;;;;5081875;28;20044;-66
2022/05/09 08:51:07;;;;;;;22.25;5.82;;;;;;;;;;5077869;28;20048;-66
2022/05/09 08:53:38;;;;;;;20.70;5.65;;;;;;;;;;5084334;28;20063;-64
2022/05/09 08:56:04;;;;;;;14.07;5.28;;;;;;;;;;5086239;28;20032;-64
2022/05/09 08:58:37;;;;;;;21.63;5.78;;;;;;;;;;5088457;28;20044;-67
2022/05/09 09:01:04;;;;;;;10.35;3.95;;;;;;;;;;5088130;28;20055;-67
2022/05/09 09:03:30;;;;;;;15.05;5.28;;;;;;;;;;5091460;28;20043;-67
2022/05/09 09:06:01;;;;;;;15.30;5.50;;;;;;;;;;5087461;28;20098;-67
2022/05/09 09:08:37;;;;;;;12.32;3.33;;;;;;;;;;5085320;28;20051;-67
2022/05/09 09:11:15;;;;;;;9.98;2.90;;;;;;;;;;5084039;28;20056;-67
2022/05/09 09:13:44;;;;;;;17.52;5.05;;;;;;;;;;5087527;28;20538;-67
2022/05/09 09:16:19;;;;;;;12.68;3.78;;;;;;;;;;5080116;28;20044;-67
2022/05/09 09:19:04;;;;;;;19.50;4.63;;;;;;;;;;5086696;28;20119;-67
2022/05/09 09:21:36;;;;;;;10.95;2.95;;;;;;;;;;5091028;28;20044;-68
2022/05/09 09:24:18;;;;;;;14.73;4.22;;;;;;;;;;5085230;28;20044;-67
2022/05/09 09:26:54;;;;;;;10.18;3.45;;;;;;;;;;5085218;28;20036;-67
2022/05/09 09:29:25;;;;;;;14.25;3.97;;;;;;;;;;5087649;28;20084;-67
2022/05/09 09:32:09;;;;;;;17.05;3.70;;;;;;;;;;5091225;28;20479;-68
2022/05/09 09:34:35;;;;;;;11.85;3.55;;;;;;;;;;5090966;28;20062;-67
2022/05/09 09:37:06;;;;;;;8.07;3.15;;;;;;;;;;5082472;28;20040;-67
2022/05/09 09:39:32;;;;;;;16.55;4.95;;;;;;;;;;5076436;28;20061;-67
2022/05/09 09:41:58;;;;;;;13.85;4.15;;;;;;;;;;5083909;28;20040;-67
2022/05/09 09:44:25;;;;;;;29.80;8.20;;;;;;;;;;5091967;28;20493;-66
2022/05/09 09:47:10;;;;;;;9.77;2.90;;;;;;;;;;5093025;28;20040;-67
2022/05/09 09:49:38;;;;;;;35.97;9.77;;;;;;;;;;5090612;28;20044;-67
2022/05/09 09:52:13;;;;;;;11.20;3.28;;;;;;;;;;5092356;28;20038;-65
2022/05/09 09:54:39;;;;;;;19.58;5.57;;;;;;;;;;5090167;28;20044;-65
2022/05/09 09:57:24;;;;;;;10.02;2.20;;;;;;;;;;5090378;28;20040;-66
2022/05/09 09:59:50;;;;;;;9.52;2.88;;;;;;;;;;5090465;28;20105;-67
2022/05/09 10:02:24;;;;;;;8.70;2.88;;;;;;;;;;5099817;28;20044;-67
2022/05/09 10:04:50;;;;;;;10.57;2.70;;;;;;;;;;5092174;28;20056;-68
2022/05/09 10:07:26;;;;;;;11.25;3.42;;;;;;;;;;5085520;28;20117;-68
2022/05/09 10:10:10;;;;;;;12.60;3.30;;;;;;;;;;5090477;28;20599;-67
2022/05/09 10:12:38;;;;;;;19.20;4.70;;;;;;;;;;5093828;28;20467;-67
2022/05/09 10:15:19;;;;;;;22.25;4.63;;;;;;;;;;5085400;28;20048;-68
2022/05/09 10:17:45;;;;;;;8.73;2.70;;;;;;;;;;5091491;28;20047;-67
2022/05/09 10:20:33;;;;;;;14.13;3.65;;;;;;;;;;5090144;28;20052;-67
2022/05/09 10:25:59;;;;;;;9.38;2.75;;;;;;;;;;5084813;28;20055;-68
2022/05/09 10:28:26;;;;;;;9.15;2.35;;;;;;;;;;5081363;28;20056;-67
2022/05/09 10:31:01;;;;;;;7.18;2.50;;;;;;;;;;5091398;28;20037;-67
2022/05/09 10:33:35;;;;;;;9.90;2.80;;;;;;;;;;5085010;28;20091;-66
2022/05/09 10:36:08;;;;;;;9.23;2.42;;;;;;;;;;5083869;28;20136;-67
2022/05/09 10:38:40;;;;;;;10.32;2.80;;;;;;;;;;5076277;28;20488;-67
2022/05/09 10:41:24;;;;;;;11.35;3.10;;;;;;;;;;5079813;28;20067;-67
2022/05/09 10:43:57;;;;;;;8.75;2.65;;;;;;;;;;5081721;28;20044;-68
2022/05/09 10:46:28;;;;;;;21.88;4.38;;;;;;;;;;5093512;28;20500;-67
2022/05/09 10:48:59;;;;;;;11.77;3.58;;;;;;;;;;5094211;28;20097;-67
2022/05/09 10:51:32;;;;;;;9.95;3.00;;;;;;;;;;5085292;28;20513;-67
2022/05/09 10:54:11;;;;;;;22.80;4.20;;;;;;;;;;5089011;28;20048;-67
2022/05/09 10:56:37;;;;;;;9.75;3.65;;;;;;;;;;5088301;28;20053;-67
2022/05/09 10:59:10;;;;;;;15.20;4.32;;;;;;;;;;5086612;28;20042;-67
2022/05/09 11:01:42;;;;;;;12.18;3.90;;;;;;;;;;5093238;28;20047;-67
2022/05/09 11:04:09;;;;;;;21.52;5.35;;;;;;;;;;5076682;28;20045;-67
2022/05/09 11:06:50;;;;;;;9.20;2.95;;;;;;;;;;5089325;28;20425;-67
2022/05/09 11:09:24;;;;;;;8.93;3.10;;;;;;;;;;5085210;28;20048;-67
2022/05/09 11:11:53;;;;;;;9.95;2.97;;;;;;;;;;5086757;28;20047;-67
2022/05/09 11:14:22;;;;;;;11.77;2.80;;;;;;;;;;5086724;28;20036;-67
2022/05/09 11:17:08;;;;;;;13.82;3.72;;;;;;;;;;5091682;28;20044;-67
2022/05/09 11:19:52;;;;;;;11.80;2.85;;;;;;;;;;5088449;28;20125;-67
2022/05/09 11:22:21;;;;;;;9.63;3.03;;;;;;;;;;5089529;28;20042;-67
2022/05/09 11:25:06;;;;;;;6.80;2.47;;;;;;;;;;5088562;28;20419;-67
2022/05/09 11:27:50;;;;;;;9.25;3.72;;;;;;;;;;5090712;28;20054;-67
2022/05/09 11:30:22;;;;;;;8.80;2.75;;;;;;;;;;5086076;28;20432;-68
2022/05/09 11:32:53;;;;;;;12.00;3.03;;;;;;;;;;5087122;28;20404;-68
2022/05/09 11:35:31;;;;;;;7.75;3.20;;;;;;;;;;5087563;28;20154;-67
2022/05/09 11:37:57;;;;;;;5.10;2.40;;;;;;;;;;5089210;28;20040;-67
2022/05/09 11:40:26;;;;;;;14.15;3.72;;;;;;;;;;5089850;28;20047;-67
2022/05/09 11:43:29;;;;;;;8.70;3.20;;;;;;;;;;5088740;28;20600;-68
2022/05/09 11:46:01;;;;;;;13.02;3.55;;;;;;;;;;5083310;28;20040;-68
2022/05/09 11:48:43;;;;;;;34.88;7.95;;;;;;;;;;5090318;28;20040;-68
2022/05/09 11:51:29;;;;;;;29.35;6.70;;;;;;;;;;5087436;28;20036;-68
2022/05/09 11:53:57;;;;;;;18.55;4.28;;;;;;;;;;5086906;28;20040;-68
2022/05/09 11:56:25;;;;;;;10.70;3.92;;;;;;;;;;5087369;28;20032;-67
2022/05/09 11:58:51;;;;;;;9.35;3.13;;;;;;;;;;5089757;28;20048;-68
2022/05/09 12:01:37;;;;;;;9.60;3.20;;;;;;;;;;5101009;28;20119;-68
2022/05/09 12:04:03;;;;;;;10.43;3.13;;;;;;;;;;5086507;28;20128;-67
2022/05/09 12:06:31;;;;;;;13.70;4.63;;;;;;;;;;5084862;28;20036;-68
2022/05/09 12:08:58;;;;;;;33.47;8.45;;;;;;;;;;5091345;28;20445;-68
2022/05/09 12:11:29;;;;;;;6.75;2.78;;;;;;;;;;5082115;28;20045;-67
2022/05/09 12:13:57;;;;;;;11.63;2.72;;;;;;;;;;5077803;28;20494;-68
2022/05/09 12:16:22;;;;;;;;;;;;;;;;;;5088758;28;20044;-68
2022/05/09 12:18:56;;;;;;;14.05;3.30;;;;;;;;;;5091606;28;20007;-68
2022/05/09 12:21:31;;;;;;;25.77;7.18;;;;;;;;;;5085580;28;20041;-68
2022/05/09 12:24:18;;;;;;;14.73;3.38;;;;;;;;;;5077415;28;20141;-68
2022/05/09 12:26:46;;;;;;;9.10;2.80;;;;;;;;;;5087274;28;20051;-68
2022/05/09 12:29:12;;;;;;;6.18;2.28;;;;;;;;;;5092589;28;20113;-68
2022/05/09 12:31:50;;;;;;;7.15;2.50;;;;;;;;;;5092236;28;20473;-68
2022/05/09 12:34:16;;;;;;;;;;;;;;;;;;5075841;28;20047;-68
2022/05/09 12:36:44;;;;;;;46.05;9.65;;;;;;;;;;5072476;28;19920;-68
2022/05/09 12:39:28;;;;;;;10.15;2.60;;;;;;;;;;5091492;28;20059;-68
2022/05/09 12:41:56;;;;;;;4.38;2.10;;;;;;;;;;5075902;28;20495;-68
2022/05/09 12:44:30;;;;;;;7.45;2.70;;;;;;;;;;5073336;28;20045;-68
2022/05/09 12:46:58;;;;;;;4.90;2.30;;;;;;;;;;5107295;28;20479;-68
2022/05/09 12:49:53;;;;;;;11.38;3.28;;;;;;;;;;5073609;28;20091;-68
2022/05/09 12:52:22;;;;;;;6.50;2.40;;;;;;;;;;5073844;28;20060;-68
2022/05/09 12:57:34;;;;;;;17.02;4.75;;;;;;;;;;5088529;28;20127;-68
2022/05/09 13:00:07;;;;;;;8.38;2.88;;;;;;;;;;5077324;28;20432;-68
2022/05/09 13:02:33;;;;;;;5.45;2.30;;;;;;;;;;5090985;28;20584;-67
2022/05/09 13:04:59;;;;;;;20.35;4.78;;;;;;;;;;5092283;28;20511;-68
2022/05/09 13:07:25;;;;;;;14.25;4.15;;;;;;;;;;5078826;28;20098;-68
2022/05/09 13:09:52;;;;;;;9.13;2.42;;;;;;;;;;5072188;28;20103;-68
2022/05/09 13:12:27;;;;;;;7.28;2.55;;;;;;;;;;5071430;28;20040;-68
2022/05/09 13:14:56;;;;;;;9.15;2.55;;;;;;;;;;5079779;28;20053;-68
2022/05/09 13:17:26;;;;;;;5.25;2.20;;;;;;;;;;5092578;28;20048;-68
2022/05/09 13:19:53;;;;;;;12.85;2.97;;;;;;;;;;5095446;28;20126;-67
2022/05/09 13:22:23;;;;;;;26.90;6.68;;;;;;;;;;5095268;28;20040;-68
2022/05/09 13:24:50;;;;;;;27.25;5.28;;;;;;;;;;5096437;28;20044;-68
2022/05/09 13:27:20;;;;;;;16.63;3.25;;;;;;;;;;5091143;28;20434;-68
2022/05/09 13:29:49;;;;;;;9.10;2.20;;;;;;;;;;5081072;28;20048;-68
2022/05/09 13:32:25;;;;;;;4.80;2.20;;;;;;;;;;5082014;28;20074;-69
2022/05/09 13:34:52;;;;;;;6.70;2.13;;;;;;;;;;5082328;28;20051;-67
2022/05/09 13:37:29;;;;;;;4.90;2.58;;;;;;;;;;5075725;28;20052;-68
2022/05/09 13:39:56;;;;;;;6.43;2.13;;;;;;;;;;5089501;28;20052;-68
2022/05/09 13:42:22;;;;;;;4.55;1.85;;;;;;;;;;5092958;28;20122;-68
2022/05/09 13:44:49;;;;;;;8.48;2.63;;;;;;;;;;5088713;28;20083;-68
2022/05/09 13:47:16;;;;;;;4.07;2.10;;;;;;;;;;5096006;28;20050;-68
2022/05/09 13:49:43;;;;;;;5.72;2.22;;;;;;;;;;5094510;28;20051;-68
2022/05/09 13:52:11;;;;;;;5.85;2.35;;;;;;;;;;5089578;28;20043;-68
2022/05/09 13:54:44;;;;;;;13.95;3.10;;;;;;;;;;5083374;28;20089;-68
2022/05/09 13:57:16;;;;;;;8.52;2.28;;;;;;;;;;5086479;28;20044;-68
2022/05/09 13:59:42;;;;;;;4.15;1.98;;;;;;;;;;5092034;28;20040;-75
2022/05/09 14:02:09;;;;;;;13.15;3.92;;;;;;;;;;5084468;28;20063;-69
2022/05/09 14:04:36;;;;;;;12.25;3.60;;;;;;;;;;5082844;28;20079;-69
2022/05/09 14:07:37;;;;;;;11.23;2.75;;;;;;;;;;5094563;28;20072;-69
2022/05/09 14:09:49;;;;;;;;;;;;;;;;;;5095524;28;20044;-68
2022/05/09 14:12:17;;;;;;;9.82;3.00;;;;;;;;;;5092609;28;19920;-67
2022/05/09 14:14:44;;;;;;;7.53;2.38;;;;;;;;;;5091689;28;20067;-68
2022/05/09 14:17:20;;;;;;;6.63;2.43;;;;;;;;;;5088025;28;20050;-69
2022/05/09 14:19:49;;;;;;;14.07;3.55;;;;;;;;;;5093234;28;20321;-71
2022/05/09 14:22:16;;;;;;;7.07;2.50;;;;;;;;;;5094220;28;20223;-70
2022/05/09 14:29:36;;;;;;;8.25;2.58;;;;;;;;;;5109573;28;20052;-70
2022/05/09 14:30:14;;;;;;;11.07;2.72;;;;;;;;;;5085412;28;20282;-69
2022/05/09 14:32:40;;;;;;;54.00;11.00;;;;;;;;;;5074861;28;20041;-69
2022/05/09 14:35:06;;;;;;;21.73;5.60;;;;;;;;;;5081837;28;20440;-68
2022/05/09 14:37:33;;;;;;;19.48;4.50;;;;;;;;;;5095101;28;20407;-72
2022/05/09 14:39:59;;;;;;;5.60;2.70;;;;;;;;;;5093841;28;20514;-70
2022/05/09 14:42:26;;;;;;;7.80;2.58;;;;;;;;;;5081814;28;20048;-68
2022/05/09 14:45:08;;;;;;;7.00;2.30;;;;;;;;;;5076562;28;20056;-67
2022/05/09 14:47:42;;;;;;;8.02;2.45;;;;;;;;;;5078169;28;20041;-68
2022/05/09 14:50:08;;;;;;;9.32;2.83;;;;;;;;;;5092581;28;20043;-69
2022/05/09 14:52:39;;;;;;;7.35;2.90;;;;;;;;;;5079660;28;20093;-69
2022/05/09 14:57:54;;;;;;;9.50;2.83;;;;;;;;;;5089255;28;20044;-69